Flight Track Log - Related Links

Times and Time Zones

All times are in EDT time to prevent confusion due to time zone crossing. See the AAL2360 flight status page for this flight to view local times or setup timezone preferences in your user account.

Time Position Orientation Groundspeed Altitude Reporting Facility
EDT Latitude Longitude Course Direction KTS MPH feet Rate Location/Type
Wed 04:51:11 PM 32.9167 -97.0333 357° North 156 180 2,000  Level Dallas / Fort Worth TRACON
Wed 04:52:11 PM 32.9667 -97.0333 360° North 217 250 3,800 2,298 Climbing Dallas / Fort Worth TRACON
Wed 04:53:00 PM 32.8772 -96.8000 North  Level FlightAware Approximate
Wed 04:54:00 PM 33.0046 -96.8000 North  Level FlightAware Approximate
Wed 04:54:19 PM 33.1125 -97.0092 North 256 295 9,200  Level Fort Worth Center
Wed 04:55:00 PM 33.1319 -96.8046 357° North  Level FlightAware Approximate
Wed 04:55:19 PM 33.2061 -96.9592 24° Northeast 308 354 10,700  Level Fort Worth Center
Wed 04:56:00 PM 33.2590 -96.8137 357° North  Level FlightAware Approximate
Wed 04:56:19 PM 33.3061 -96.9014 26° Northeast 376 433 14,100  Level Fort Worth Center
Wed 04:57:19 PM 33.3936 -96.8561 23° Northeast 383 441 16,900 2,050 Climbing Fort Worth Center
Wed 04:58:19 PM 33.5039 -96.7906 26° Northeast 388 447 18,200 1,500 Climbing Fort Worth Center
Wed 04:59:19 PM 33.6017 -96.7275 28° Northeast 417 480 19,900 1,950 Climbing Fort Worth Center
Wed 05:00:19 PM 33.7203 -96.6517 28° Northeast 429 494 22,100 1,800 Climbing Fort Worth Center
Wed 05:01:19 PM 33.8200 -96.5858 29° Northeast 442 509 23,500 1,600 Climbing Fort Worth Center
Wed 05:02:19 PM 33.9489 -96.5044 28° Northeast 463 533 25,300 1,650 Climbing Fort Worth Center
Wed 05:03:19 PM 34.0672 -96.4281 28° Northeast 472 543 26,800 850 Climbing Fort Worth Center
Wed 05:04:19 PM 34.1647 -96.3467 35° Northeast 472 543 27,000 100 Climbing Fort Worth Center
Wed 05:05:19 PM 34.2767 -96.2547 34° Northeast 478 550 27,000 850 Level Fort Worth Center
Wed 05:06:19 PM 34.3925 -96.1603 34° Northeast 491 565 28,700 1,400 Climbing Fort Worth Center
Wed 05:07:19 PM 34.5042 -96.0653 35° Northeast 491 565 29,800 1,050 Climbing Fort Worth Center
Wed 05:08:19 PM 34.6219 -95.9700 34° Northeast 491 565 30,800 600 Climbing Fort Worth Center
Wed 05:09:19 PM 34.7378 -95.8722 35° Northeast 491 565 31,000 71 Climbing Fort Worth Center
Wed 05:11:09 PM 34.9472 -95.6950 35° Northeast 482 555 31,000  Level Memphis Center
Wed 05:12:09 PM 35.0581 -95.5903 38° Northeast 494 568 31,000  Level Memphis Center
Wed 05:13:09 PM 35.1689 -95.4881 37° Northeast 499 574 31,000  Level Memphis Center
Wed 05:14:09 PM 35.2794 -95.3828 38° Northeast 506 582 31,000  Level Memphis Center
Wed 05:15:09 PM 35.3881 -95.2775 38° Northeast 506 582 31,000  Level Memphis Center
Wed 05:16:09 PM 35.4986 -95.1717 38° Northeast 506 582 31,000  Level Memphis Center
Wed 05:17:09 PM 35.6067 -95.0681 38° Northeast 506 582 31,000  Level Memphis Center
Wed 05:18:09 PM 35.7172 -94.9594 39° Northeast 506 582 31,000  Level Memphis Center
Wed 05:19:09 PM 35.8253 -94.8553 38° Northeast 501 577 31,000 -50 Level Memphis Center
Wed 05:20:09 PM 35.9333 -94.7511 38° Northeast 501 577 30,900 -50 Descending Memphis Center
Wed 05:21:09 PM 36.0411 -94.6439 39° Northeast 501 577 30,900  Level Memphis Center
Wed 05:22:09 PM 36.1489 -94.5389 38° Northeast 501 577 30,900 622 Level Memphis Center
Wed 05:23:53 PM 36.3494 -94.3417 38° Northeast 500 575 32,600 759 Climbing Kansas City Center
Wed 05:24:55 PM 36.4578 -94.2347 38° Northeast 501 577 33,000 194 Climbing Kansas City Center
Wed 05:25:57 PM 36.5678 -94.1261 38° Northeast 503 579 33,000 143 Level Kansas City Center
Wed 05:27:01 PM 36.6764 -94.0178 39° Northeast 503 579 33,300 581 Climbing Kansas City Center
Wed 05:28:01 PM 36.7867 -93.9100 38° Northeast 501 577 34,200 726 Climbing Kansas City Center
Wed 05:29:05 PM 36.8947 -93.8003 39° Northeast 502 578 34,800 384 Climbing Kansas City Center
Wed 05:30:06 PM 37.0225 -93.6714 39° Northeast 500 575 35,000 98 Climbing Kansas City Center
Wed 05:31:07 PM 37.1303 -93.5597 40° Northeast 502 578 35,000  Level Kansas City Center
Wed 05:32:11 PM 37.2411 -93.4514 38° Northeast 502 578 35,000  Level Kansas City Center
Wed 05:33:12 PM 37.3511 -93.3411 39° Northeast 503 579 35,000 -48 Level Kansas City Center
Wed 05:34:16 PM 37.4608 -93.2364 37° Northeast 497 572 34,900  Descending Kansas City Center
Wed 05:35:16 PM 37.5742 -93.1339 36° Northeast 497 572 35,000 48 Climbing Kansas City Center
Wed 05:36:20 PM 37.6878 -93.0294 36° Northeast 501 577 35,000  Level Kansas City Center
Wed 05:37:20 PM 37.8233 -92.9025 36° Northeast 501 577 35,000  Level Kansas City Center
Wed 05:38:24 PM 37.9367 -92.7958 37° Northeast 502 578 35,000 48 Level Kansas City Center
Wed 05:39:24 PM 38.0350 -92.7028 37° Northeast 502 578 35,100  Climbing Kansas City Center
Wed 05:40:25 PM 38.1700 -92.5764 36° Northeast 502 578 35,000 -48 Descending Kansas City Center
Wed 05:41:28 PM 38.2794 -92.4725 37° Northeast 503 579 35,000  Level Kansas City Center
Wed 05:42:32 PM 38.3925 -92.3639 37° Northeast 502 578 35,000 -48 Level Kansas City Center
Wed 05:43:33 PM 38.5056 -92.2558 37° Northeast 503 579 34,900  Descending Kansas City Center
Wed 05:44:34 PM 38.6186 -92.1489 36° Northeast 502 578 35,000  Climbing Kansas City Center
Wed 05:45:37 PM 38.7317 -92.0400 37° Northeast 504 580 34,900  Descending Kansas City Center
Wed 05:46:38 PM 38.8686 -91.9067 37° Northeast 508 585 35,000 96 Climbing Kansas City Center
Wed 05:47:42 PM 38.9756 -91.7775 43° Northeast 518 596 35,100 48 Climbing Kansas City Center
Wed 05:48:42 PM 39.0708 -91.6244 51° Northeast 540 621 35,100 -48 Level Kansas City Center
Wed 05:49:46 PM 39.1756 -91.4894 45° Northeast 536 617 35,000 -48 Descending Kansas City Center
Wed 05:50:46 PM 39.2978 -91.4478 15° North 477 549 35,000 -48 Level Kansas City Center
Wed 05:51:50 PM 39.4092 -91.4656 353° North 414 476 34,900 -288 Descending Kansas City Center
Wed 05:52:51 PM 39.5292 -91.3972 24° Northeast 456 525 34,400 -919 Descending Kansas City Center
Wed 05:53:54 PM 39.6592 -91.2553 40° Northeast 492 566 33,000 -672 Descending Kansas City Center
Wed 05:54:56 PM 39.7667 -91.1389 40° Northeast 508 585 33,000  Level Kansas City Center
Wed 05:55:56 PM 39.8742 -91.0225 40° Northeast 509 586 33,000  Level Kansas City Center
Wed 05:57:00 PM 39.9964 -90.8886 40° Northeast 508 585 33,000 -48 Level Kansas City Center
Wed 05:58:00 PM 40.1036 -90.7725 40° Northeast 504 580 32,900  Descending Kansas City Center
Wed 05:58:55 PM 40.1922 -90.6736 40° Northeast 501 577 33,000 51 Climbing Chicago Center
Wed 05:59:57 PM 40.2950 -90.5619 40° Northeast 499 574 33,000 -48 Level Chicago Center
Wed 06:01:00 PM 40.4217 -90.4214 40° Northeast 497 572 32,900 -480 Descending Chicago Center
Wed 06:02:02 PM 40.5281 -90.3036 40° Northeast 497 572 32,000 -1,016 Descending Chicago Center
Wed 06:03:04 PM 40.6247 -90.1944 41° Northeast 491 565 30,800 -1,452 Descending Chicago Center
Wed 06:04:06 PM 40.7461 -90.0586 40° Northeast 478 550 29,000 -1,452 Descending Chicago Center
Wed 06:05:08 PM 40.8439 -89.9486 40° Northeast 465 535 27,800 -1,210 Descending Chicago Center
Wed 06:06:10 PM 40.9375 -89.8417 41° Northeast 448 516 26,500 -1,258 Descending Chicago Center
Wed 06:07:12 PM 41.0292 -89.7375 41° Northeast 460 529 25,200 -1,548 Descending Chicago Center
Wed 06:08:14 PM 41.1267 -89.6256 41° Northeast 463 533 23,300 -2,226 Descending Chicago Center
Wed 06:09:16 PM 41.2111 -89.4633 55° Northeast 448 516 20,600 -2,419 Descending Chicago Center
Wed 06:10:18 PM 41.2675 -89.3236 62° Northeast 432 497 18,300 -2,129 Descending Chicago Center
Wed 06:11:20 PM 41.3222 -89.1872 62° Northeast 410 472 16,200 -2,032 Descending Chicago Center
Wed 06:12:22 PM 41.3728 -89.0581 62° Northeast 398 458 14,100 -1,776 Descending Chicago Center
Wed 06:13:25 PM 41.4211 -88.9361 62° Northeast 382 440 12,500 -1,392 Descending Chicago Center
Wed 06:14:27 PM 41.4689 -88.8156 62° Northeast 371 427 11,200 -726 Descending Chicago Center
Wed 06:15:29 PM 41.5253 -88.6711 62° Northeast 367 422 11,000 -97 Descending Chicago Center
Wed 06:16:31 PM 41.5733 -88.5522 62° Northeast 365 420 11,000  Level Chicago Center
Wed 06:17:33 PM 41.6244 -88.4353 60° Northeast 365 420 11,000  Level Chicago Center
Wed 06:18:35 PM 41.6883 -88.3294 51° Northeast 363 418 11,000 -242 Level Chicago Center
Wed 06:19:37 PM 41.7503 -88.2217 52° Northeast 365 420 10,500 -629 Descending Chicago Center
Wed 06:20:39 PM 41.8042 -88.1294 52° Northeast 320 368 9,700 -1,065 Descending Chicago Center
Wed 06:21:41 PM 41.8533 -88.0456 52° Northeast 294 338 8,300 -1,582 Descending Chicago Center
Wed 06:22:10 PM 41.8833 -87.9833 57° Northeast 278 320 7,300 -876 Descending Chicago TRACON
Wed 06:23:10 PM 41.8833 -87.8833 90° East 276 318 7,000 -300 Descending Chicago TRACON
Wed 06:24:10 PM 41.8833 -87.8000 90° East 238 274 6,700 -900 Descending Chicago TRACON
Wed 06:25:10 PM 41.8833 -87.7167 90° East 237 273 5,200 -1,190 Descending Chicago TRACON
Wed 06:26:16 PM 41.9167 -87.6500 56° Northeast 234 269 4,200 -793 Descending Chicago TRACON
Wed 06:27:11 PM 41.9500 -87.6833 323° Northwest 197 227 3,600 -655 Descending Chicago TRACON

Login

Don't have an account? Register now (free) for customized features, flight alerts, and more!